This is the latest recevied weather packets stored in our database for station/object NR6G-12. If no packets are shown the sender has not sent any weather packets the latest 10 day(s).
| Time | Temp. | Humidity | Pressure | Rain* | Wind** | Luminosity | Snow |
|---|---|---|---|---|---|---|---|
| 1777828680 | 15.56° C | 51% | 1012.5 hPa | 0 mm | - | - | - |
| 1777827960 | 15.56° C | 53% | 1012.3 hPa | 0 mm | - | - | - |
| 1777826880 | 15.56° C | 46% | 1012.2 hPa | 0 mm | - | - | - |
| 1777826520 | 15.56° C | 45% | 1012.2 hPa | 0 mm | - | - | - |
| 1777825440 | 15° C | 46% | 1012.1 hPa | 0 mm | - | - | - |
| 1777825080 | 14.44° C | 47% | 1012.1 hPa | 0 mm | - | - | - |
| 1777824720 | 13.89° C | 47% | 1012.2 hPa | 0 mm | - | - | - |
| 1777824362 | 13.89° C | 48% | 1012.1 hPa | 0 mm | - | - | - |
| 1777823280 | 13.33° C | 57% | 1012 hPa | 0 mm | - | - | - |
| 1777822920 | 12.78° C | 57% | 1012.1 hPa | 0 mm | - | - | - |
| 1777822560 | 12.78° C | 59% | 1012 hPa | 0 mm | - | - | - |
| 1777821480 | 12.78° C | 61% | 1011.9 hPa | 0 mm | - | - | - |
| 1777821120 | 12.22° C | 62% | 1011.8 hPa | 0 mm | - | - | - |
| 1777819921 | 12.78° C | 52% | 1011.9 hPa | 0 mm | - | - | - |
| 1777818122 | 13.33° C | 49% | 1011.7 hPa | 0 mm | - | - | - |
| 1777817761 | 13.33° C | 47% | 1011.7 hPa | 0 mm | - | - | - |
| 1777817401 | 13.33° C | 48% | 1011.7 hPa | 0 mm | - | - | - |
| 1777816681 | 13.33° C | 47% | 1011.6 hPa | 0 mm | - | - | - |
| 1777816321 | 13.33° C | 49% | 1011.6 hPa | 0 mm | - | - | - |
| 1777814881 | 13.33° C | 46% | 1011.3 hPa | 0 mm | - | - | - |
| 1777814521 | 13.33° C | 48% | 1011.3 hPa | 0 mm | - | - | - |
| 1777814161 | 13.33° C | 46% | 1011.4 hPa | 0 mm | - | - | - |
| 1777811281 | 13.89° C | 47% | 1011.4 hPa | 0 mm | - | - | - |
| 1777810921 | 13.89° C | 47% | 1011.5 hPa | 0 mm | - | - | - |
| 1777810561 | 13.89° C | 47% | 1011.5 hPa | 0 mm | - | - | - |
* Rain latest hour (hover to see other rain measurements)
** Current wind speed in m/s (hover to see current wind gust speed)